METAR Data
IDs: Format: Raw Decoded Include TAF

Data at: 1344 UTC 14 Dec 2019

METAR for:KADU (Audubon Cnty Arpt, IA, US)
Text:KADU 141335Z AUTO 32010G15KT 10SM BKN014 OVC022 M07/M10 A2995 RMK AO2
Temperature: -7.0°C ( 19°F)
Dewpoint:-10.0°C ( 14°F) [RH = 79%]
Pressure (altimeter):29.95 inches Hg (1014.3 mb)
Winds:from the NW (320 degrees) at 12 MPH (10 knots; 5.1 m/s) gusting to 17 MPH (15 knots; 7.7 m/s)
Visibility:10 or more sm (16+ km)
Ceiling:1400 feet AGL
Clouds: broken clouds at 1400 feet AGL, overcast cloud deck at 2200 feet AGL
QC Flag:automated observation with no human augmentation